Edwards Creek Valley, Nevada Weather observations

Data are for observation ending at time listed.
 Day   Time    Ave.   Ave.  Ave.  Vector   Max.   Stn.    Total    Solar   Ave.  
  of    of     Air    Rel.  Wind   Wind    Wind   Baro.  Precip.   Rad.    Soil  
Year   Day     Temp.  Hum.  Speed  Dir.    Gust   Pres.                    Temp. 
2016   (PST)    F      %     mph   deg.    mph     mb.     in.     W/m2     F   
------------------------------------------------------------------------------
 271    7:30   57.2    35    0.7    26      2.6    849     0.00     311     57.9
 271    7:40   57.9    34    1.4    29      3.3    849     0.00     344     58.1
 271    7:50   58.4    33    2.5     7      4.0    849     0.00     377     58.4
 271    8:00   59.2    32    2.5   358      4.7    849     0.00     408     58.6
 271    8:10   59.7    32    3.2   342      5.0    849     0.00     439     59.0
 271    8:20   60.5    31    3.1   344      5.4    849     0.00     469     59.4
 271    8:30   61.7    30    2.5   351      4.9    850     0.00     498     59.9
 271    8:40   63.1    28    2.1    24      3.9    850     0.00     525     60.4
 271    8:50   65.0    26    1.2     6      4.4    852     0.00     551     61.0
 271    9:00   65.8    26    1.7   343      4.1    851     0.00     576     61.6
 271    9:10   67.6    24    1.8   123      4.2    851     0.00     599     62.3
 271    9:20   69.2    22    1.7    60      6.7    852     0.00     622     62.9
 271    9:30   69.5    22    1.6    14      4.0    852     0.00     643     63.5
 271    9:40   70.8    21    1.1     5      3.9    851     0.00     660     64.2
 271    9:50   71.7    19    1.6    39      3.5    851     0.00     676     64.8
 271   10:00   73.0    18    2.4   358      5.1    851     0.00     693     65.5
 271   10:10   73.7    18    2.3   339      5.0    852     0.00     709     66.1
 271   10:20   75.4    16    2.1    44      5.0    852     0.00     724     66.7
 271   10:30   75.8    16    2.6   345      6.4    851     0.00     737     67.3
 271   10:40   76.7    15    2.6    30      7.5    850     0.00     749     67.7
 271   10:50   76.9    14    2.5   327      6.1    851     0.00     759     67.9
 271   11:00   78.0    14    2.9    77      5.9    850     0.00     767     68.0
 271   11:10   78.9    13    2.8   328      7.3    850     0.00     774     68.0
 271   11:20   79.6    13    4.2    17      8.3    850     0.00     780     68.0
 271   11:30   80.0    12    2.6    62      6.4    849     0.00     783     67.9
 271   11:40   80.8    12    3.8    38      7.7    849     0.00     785     68.1
 271   11:50   81.2    12    3.8    70      9.0    849     0.00     785     68.6
 271   12:00   81.5    12    2.9    34      8.0    849     0.00     784     69.3
 271   12:10   81.6    12    3.5    74      9.4    848     0.00     781     70.2
 271   12:20   81.8    12    3.9    13      8.7    847     0.00     776     71.0
 271   12:30   81.9    12    5.8   350     10.4    847     0.00     769     71.9
 271   12:40   82.5    12    4.1    13      9.2    848     0.00     762     72.7
 271   12:50   82.0    12    3.7    72      8.8    848     0.00     751     73.5
 271   13:00   82.8    12    4.2    13      8.3    848     0.00     739     74.2
 271   13:10   83.7    12    5.9    61     11.5    847     0.00     726     74.9
 271   13:20   83.7    12    4.5    79      8.8    847     0.00     712     75.5
 271   13:30   83.8    11    5.3    71     11.0    847     0.00     695     76.1
 271   13:40   83.2    12    5.9    30     14.9    846     0.00     678     76.6
 271   13:50   83.3    12    6.0    47     12.4    846     0.00     659     77.1
 271   14:00   83.0    11    2.8   343     11.2    846     0.00     638     77.5
 271   14:10   84.0    11    5.0    68     11.5    846     0.00     617     77.8
 271   14:20   84.0    11    5.3    29     10.4    846     0.00     594     78.2
 271   14:30   83.9    11    6.2    30     11.3    847     0.00     570     78.4
 271   14:40   83.7    11    6.1    21     12.3    846     0.00     545     78.6
 271   14:50   83.3    11    5.1    42     11.0    847     0.00     518     78.8
 271   15:00   83.7    11    6.5    27     11.5    847     0.00     491     78.9
 271   15:10   83.5    11    8.4    26     14.6    847     0.00     463     79.0
 271   15:20   83.5    11    8.0     8     16.4    847     0.00     433     79.0
 271   15:30   83.2    12    8.9    26     14.2    847     0.00     403     78.9
 271   15:40   83.1    12    8.9    17     14.5    847     0.00     372     78.9
 271   15:50   82.8    12    8.0    18     12.0    847     0.00     342     78.9
 271   16:00   82.6    12    8.4    20     13.4    847     0.00     310     78.7
 271   16:10   82.3    12    8.5    21     12.7    847     0.00     278     78.5
 271   16:20   82.1    12    8.3    24     12.3    846     0.00     246     78.3
 271   16:30   81.6    12    8.5    23     13.0    847     0.00     214     78.1
 271   16:40   81.1    13    9.0    30     11.8    847     0.00     125     77.8
 271   16:50   80.8    13    8.0    21     11.5    847     0.00     108     77.6
 271   17:00   80.3    13    7.5    13     11.0    846     0.00      51     77.4
 271   17:10   79.7    13    5.1   346      6.9    847     0.00      37     77.1
 271   17:20   78.0    14    3.7   341      6.6    847     0.00      19     76.9
 271   17:30   75.9    14    2.1    29      2.9    846     0.00       9     76.6
 271   17:40   74.9    15    2.7    40      3.6    846     0.00       6     76.4
 271   17:50   73.6    17    0.5    55      2.6    846     0.00       3     76.0
 271   18:00   72.4    17    1.1   204      2.6    846     0.00       1     75.7
 271   18:10   69.2    19    3.8   158      5.8    846     0.00       0     75.3
 271   18:20   66.1    21    4.7   148      6.1    846     0.00       0     75.0
 271   18:30   64.6    22    4.6   158      6.6    846     0.00       0     74.6
 271   18:40   63.2    24    5.7   151      7.6    845     0.00       0     74.3
 271   18:50   62.3    24    5.7   152      6.9    846     0.00       0     73.9
 271   19:00   62.2    25    5.1   162      6.6    847     0.00       0     73.6
 271   19:10   62.0    25    4.1   167      5.8    846     0.00       0     73.2
 271   19:20   62.5    25    4.9   155      7.5    847     0.00       0     72.9
 271   19:30   63.6    24    6.2   146      8.0    847     0.00       0     72.6
 271   19:40   63.9    23    6.9   148      8.8    847     0.00       0     72.3
 271   19:50   64.0    23    7.0   148      9.6    847     0.00       0     72.1
 271   20:00   64.2    23    7.2   150      9.5    847     0.00       0     71.8
 271   20:10   64.1    23    7.4   152     10.8    847     0.00       0     71.5
 271   20:20   64.2    23    4.9   167      9.2    847     0.00       0     71.3
 271   20:30   62.3    25    2.8   185      8.1    847     0.00       0     71.1
 271   20:40   63.7    24    6.1   171     12.3    847     0.00       0     70.8
 271   20:50   61.9    25    2.0   192      4.6    847     0.00       0     70.6
 271   21:00   61.2    26    2.6   194      4.7    848     0.00       0     70.4
 271   21:10   57.1    30    2.9   211      4.0    847     0.00       0     70.2
 271   21:20   54.7    34    2.3   201      3.7    849     0.00       0     70.0
 271   21:30   54.8    32    0.8   183      2.2    849     0.00       0     69.7
 271   21:40   55.1    32    1.9   176      3.9    849     0.00       0     69.4
 271   21:50   54.9    32    2.2   180      4.6    848     0.00       0     69.2
 271   22:00   54.9    32    1.9   188      3.6    849     0.00       0     69.0
 271   22:10   54.6    32    1.9   195      3.7    849     0.00       0     68.7
 271   22:20   55.5    31    3.3   152      4.6    848     0.00       0     68.5
 271   22:30   55.1    32    2.3   197      5.9    848     0.00       0     68.2
 271   22:40   50.6    39    1.5   212      3.1    848     0.00       0     68.0
 271   22:50   50.5    39    2.5   166      4.2    848     0.00       0     67.8
 271   23:00   52.7    35    4.3   152      9.8    849     0.00       0     67.6
 271   23:10   59.0    28    5.8   134      8.2    848     0.00       0     67.3
 271   23:20   58.2    29    4.7   142      6.4    848     0.00       0     67.1
 271   23:30   57.7    29    3.1   137      6.0    849     0.00       0     66.9
 271   23:40   50.0    38    2.7   268      5.3    849     0.00       0     66.7
 271   23:50   47.0    43    1.6   249      3.1    848     0.00       0     66.5
 272    0:00   47.5    42    0.5    11      1.8    848     0.00       0     66.3
 272    0:10   46.9    42    3.1    87      4.3    848     0.00       0     66.1
 272    0:20   46.8    43    3.4   111      4.2    847     0.00       0     65.8
 272    0:30   46.3    44    3.9   132      5.0    846     0.00       0     65.6
 272    0:40   47.2    44    4.4   116      5.3    847     0.00       0     65.4
 272    0:50   47.3    43    2.5   220      4.0    847     0.00       0     65.2
 272    1:00   44.5    48    3.4   215      4.4    847     0.00       0     65.0
 272    1:10   45.1    47    2.6   204      3.9    846     0.00       0     64.7
 272    1:20   45.2    47    1.5   181      4.2    846     0.00       0     64.5
 272    1:30   45.7    46    1.3   188      3.6    847     0.00       0     64.3
 272    1:40   46.5    46    1.4   181      3.7    846     0.00       0     64.1
 272    1:50   47.9    43    0.9   185      3.0    847     0.00       0     63.9
 272    2:00   49.0    42    2.2   198      5.2    846     0.00       0     63.7
 272    2:10   48.9    42    2.8   198      4.7    846     0.00       0     63.5
 272    2:20   47.7    44    2.0   243      3.5    846     0.00       0     63.4
 272    2:30   46.5    47    1.2   220      2.3    846     0.00       0     63.2
 272    2:40   44.0    52    2.1   228      3.2    847     0.00       0     63.0
 272    2:50   43.1    53    2.5   201      3.9    846     0.00       0     62.9
 272    3:00   42.6    54    3.0   206      4.3    846     0.00       0     62.7
 272    3:10   42.3    55    3.3   214      4.5    846     0.00       0     62.5
 272    3:20   43.0    54    2.7   199      4.6    846     0.00       0     62.3
 272    3:30   43.8    52    1.8   199      4.5    846     0.00       0     62.2
 272    3:40   44.6    50    1.3   186      3.4    847     0.00       0     62.0
 272    3:50   44.4    50    1.0   195      3.0    846     0.00       0     61.8
 272    4:00   43.9    51    2.4   152      3.8    847     0.00       0     61.7
 272    4:10   42.9    52    2.7   148      3.4    847     0.00       0     61.5
 272    4:20   43.2    52    1.6   191      3.5    847     0.00       0     61.4
 272    4:30   41.1    55    1.5   320      3.0    846     0.00       0     61.2
 272    4:40   40.1    60    0.6     8      2.3    847     0.00       0     61.0
 272    4:50   41.0    58    1.6   294      2.9    847     0.00       0     60.9
 272    5:00   41.5    56    1.6   237      3.0    847     0.00       0     60.7
 272    5:10   41.4    55    0.8   277      2.7    846     0.00       0     60.5
 272    5:20   39.8    58    0.7    59      2.3    847     0.00       0     60.3
 272    5:30   38.5    59    3.2   104      4.0    847     0.00       0     60.2
 272    5:40   38.5    60    2.7   141      3.8    847     0.00       1     60.0
 272    5:50   38.8    59    1.9   154      3.2    847     0.00       5     59.8
 272    6:00   39.0    59    2.0   161      2.9    847     0.00      12     59.7
 272    6:10   38.8    59    1.7   193      3.1    847     0.00      28     59.5
 272    6:20   40.7    58    1.3   200      2.4    848     0.00      70     59.3
 272    6:30   43.9    53    1.1   194      2.9    848     0.00     109     59.2
 272    6:40   47.5    47    1.2   197      2.5    847     0.00     147     59.1
 272    6:50   49.8    44    1.3   205      2.3    848     0.00     178     59.0
 272    7:00   51.5    42    1.8   240      2.8    848     0.00     209     58.9
 272    7:10   51.8    42    1.9   243      3.4    848     0.00     241     59.0
 272    7:20   54.5    38    0.5   205      1.5    848     0.00     274     59.0

Return to Carson Sink graphs page.


Western Regional Climate Center,wrcc@dri.edu